sensor_id;sensor_type;location;lat;lon;timestamp;P1;durP1;ratioP1;P2;durP2;ratioP2
68089;SDS011;54880;50.986;6.990;2022-12-07T00:01:53;28.97;;;14.57;;
68089;SDS011;54880;50.986;6.990;2022-12-07T00:04:18;31.10;;;14.57;;
68089;SDS011;54880;50.986;6.990;2022-12-07T00:06:45;28.30;;;14.83;;
68089;SDS011;54880;50.986;6.990;2022-12-07T00:09:11;24.30;;;12.95;;
68089;SDS011;54880;50.986;6.990;2022-12-07T00:11:37;25.73;;;13.95;;
68089;SDS011;54880;50.986;6.990;2022-12-07T00:14:05;30.50;;;13.70;;
68089;SDS011;54880;50.986;6.990;2022-12-07T00:16:32;27.20;;;14.37;;
68089;SDS011;54880;50.986;6.990;2022-12-07T00:18:57;29.05;;;13.00;;
68089;SDS011;54880;50.986;6.990;2022-12-07T00:21:24;30.10;;;13.70;;
68089;SDS011;54880;50.986;6.990;2022-12-07T00:23:50;25.88;;;13.18;;
68089;SDS011;54880;50.986;6.990;2022-12-07T00:26:18;29.88;;;14.60;;
68089;SDS011;54880;50.986;6.990;2022-12-07T00:28:47;27.52;;;14.45;;
68089;SDS011;54880;50.986;6.990;2022-12-07T00:31:13;29.45;;;14.32;;
68089;SDS011;54880;50.986;6.990;2022-12-07T00:33:39;30.70;;;14.07;;
68089;SDS011;54880;50.986;6.990;2022-12-07T00:36:06;31.65;;;15.20;;
68089;SDS011;54880;50.986;6.990;2022-12-07T00:38:32;28.73;;;14.53;;
68089;SDS011;54880;50.986;6.990;2022-12-07T00:40:58;30.25;;;15.02;;
68089;SDS011;54880;50.986;6.990;2022-12-07T00:43:24;28.58;;;15.15;;
68089;SDS011;54880;50.986;6.990;2022-12-07T00:45:49;28.83;;;14.73;;
68089;SDS011;54880;50.986;6.990;2022-12-07T00:48:14;27.43;;;13.93;;
68089;SDS011;54880;50.986;6.990;2022-12-07T00:50:40;27.07;;;13.87;;
68089;SDS011;54880;50.986;6.990;2022-12-07T00:53:05;29.47;;;14.70;;
68089;SDS011;54880;50.986;6.990;2022-12-07T00:55:34;27.73;;;14.03;;
68089;SDS011;54880;50.986;6.990;2022-12-07T00:57:59;26.70;;;13.68;;
68089;SDS011;54880;50.986;6.990;2022-12-07T01:00:24;29.73;;;14.57;;
68089;SDS011;54880;50.986;6.990;2022-12-07T01:02:49;25.30;;;13.53;;
68089;SDS011;54880;50.986;6.990;2022-12-07T01:05:15;29.17;;;14.53;;
68089;SDS011;54880;50.986;6.990;2022-12-07T01:07:40;28.03;;;13.30;;
68089;SDS011;54880;50.986;6.990;2022-12-07T01:10:06;31.87;;;14.37;;
68089;SDS011;54880;50.986;6.990;2022-12-07T01:12:31;30.27;;;14.37;;
68089;SDS011;54880;50.986;6.990;2022-12-07T01:14:56;29.20;;;13.77;;
68089;SDS011;54880;50.986;6.990;2022-12-07T01:17:21;27.87;;;14.63;;
68089;SDS011;54880;50.986;6.990;2022-12-07T01:19:47;29.13;;;15.10;;
68089;SDS011;54880;50.986;6.990;2022-12-07T01:22:12;28.80;;;14.67;;
68089;SDS011;54880;50.986;6.990;2022-12-07T01:24:37;31.00;;;14.77;;
68089;SDS011;54880;50.986;6.990;2022-12-07T01:27:02;30.00;;;15.50;;
68089;SDS011;54880;50.986;6.990;2022-12-07T01:29:27;29.77;;;14.27;;
68089;SDS011;54880;50.986;6.990;2022-12-07T01:31:53;31.60;;;14.07;;
68089;SDS011;54880;50.986;6.990;2022-12-07T01:34:18;28.60;;;14.63;;
68089;SDS011;54880;50.986;6.990;2022-12-07T01:36:43;32.90;;;14.87;;
68089;SDS011;54880;50.986;6.990;2022-12-07T01:39:08;31.43;;;15.47;;
68089;SDS011;54880;50.986;6.990;2022-12-07T01:41:35;30.93;;;15.33;;
68089;SDS011;54880;50.986;6.990;2022-12-07T01:46:38;30.60;;;14.88;;
68089;SDS011;54880;50.986;6.990;2022-12-07T01:49:04;30.07;;;15.20;;
68089;SDS011;54880;50.986;6.990;2022-12-07T01:51:31;28.80;;;15.48;;
68089;SDS011;54880;50.986;6.990;2022-12-07T01:53:56;32.67;;;15.73;;
68089;SDS011;54880;50.986;6.990;2022-12-07T01:56:23;27.90;;;15.27;;
68089;SDS011;54880;50.986;6.990;2022-12-07T01:58:48;33.55;;;16.17;;
68089;SDS011;54880;50.986;6.990;2022-12-07T02:01:14;35.77;;;16.10;;
68089;SDS011;54880;50.986;6.990;2022-12-07T02:03:40;35.13;;;16.27;;
68089;SDS011;54880;50.986;6.990;2022-12-07T02:06:05;33.25;;;16.75;;
68089;SDS011;54880;50.986;6.990;2022-12-07T02:08:32;33.00;;;17.33;;
68089;SDS011;54880;50.986;6.990;2022-12-07T02:10:57;33.13;;;16.33;;
68089;SDS011;54880;50.986;6.990;2022-12-07T02:13:28;32.08;;;16.92;;
68089;SDS011;54880;50.986;6.990;2022-12-07T02:16:13;32.55;;;17.48;;
68089;SDS011;54880;50.986;6.990;2022-12-07T02:29:22;34.58;;;16.02;;
68089;SDS011;54880;50.986;6.990;2022-12-07T02:31:51;34.05;;;17.02;;
68089;SDS011;54880;50.986;6.990;2022-12-07T02:34:20;30.98;;;16.38;;
68089;SDS011;54880;50.986;6.990;2022-12-07T02:36:50;29.27;;;16.23;;
68089;SDS011;54880;50.986;6.990;2022-12-07T02:39:19;36.07;;;15.43;;
68089;SDS011;54880;50.986;6.990;2022-12-07T02:41:51;32.33;;;14.90;;
68089;SDS011;54880;50.986;6.990;2022-12-07T02:44:19;32.53;;;16.33;;
68089;SDS011;54880;50.986;6.990;2022-12-07T02:46:59;30.85;;;14.73;;
68089;SDS011;54880;50.986;6.990;2022-12-07T02:49:26;33.42;;;16.02;;
68089;SDS011;54880;50.986;6.990;2022-12-07T02:51:52;29.47;;;15.00;;
68089;SDS011;54880;50.986;6.990;2022-12-07T02:54:18;30.35;;;15.43;;
68089;SDS011;54880;50.986;6.990;2022-12-07T03:10:03;31.40;;;16.92;;
68089;SDS011;54880;50.986;6.990;2022-12-07T03:12:35;31.90;;;16.38;;
68089;SDS011;54880;50.986;6.990;2022-12-07T03:15:23;30.60;;;15.80;;
68089;SDS011;54880;50.986;6.990;2022-12-07T03:17:52;37.50;;;16.13;;
68089;SDS011;54880;50.986;6.990;2022-12-07T03:20:20;32.22;;;16.95;;
68089;SDS011;54880;50.986;6.990;2022-12-07T03:22:46;35.42;;;17.10;;
68089;SDS011;54880;50.986;6.990;2022-12-07T03:25:13;33.77;;;16.63;;
68089;SDS011;54880;50.986;6.990;2022-12-07T03:27:47;29.85;;;16.30;;
68089;SDS011;54880;50.986;6.990;2022-12-07T03:30:22;36.80;;;16.33;;
68089;SDS011;54880;50.986;6.990;2022-12-07T03:32:56;33.53;;;15.17;;
68089;SDS011;54880;50.986;6.990;2022-12-07T03:35:27;29.02;;;15.18;;
68089;SDS011;54880;50.986;6.990;2022-12-07T03:37:54;30.52;;;16.75;;
68089;SDS011;54880;50.986;6.990;2022-12-07T03:43:05;32.17;;;16.45;;
68089;SDS011;54880;50.986;6.990;2022-12-07T03:45:40;32.40;;;17.27;;
68089;SDS011;54880;50.986;6.990;2022-12-07T03:53:17;35.83;;;16.63;;
68089;SDS011;54880;50.986;6.990;2022-12-07T03:55:43;37.30;;;17.17;;
68089;SDS011;54880;50.986;6.990;2022-12-07T03:58:10;34.35;;;17.17;;
68089;SDS011;54880;50.986;6.990;2022-12-07T04:00:36;32.78;;;15.52;;
68089;SDS011;54880;50.986;6.990;2022-12-07T04:03:02;37.20;;;17.97;;
68089;SDS011;54880;50.986;6.990;2022-12-07T04:05:27;35.17;;;18.17;;
68089;SDS011;54880;50.986;6.990;2022-12-07T04:07:52;34.20;;;18.10;;
68089;SDS011;54880;50.986;6.990;2022-12-07T04:10:18;35.13;;;18.77;;
68089;SDS011;54880;50.986;6.990;2022-12-07T04:12:43;32.53;;;17.08;;
68089;SDS011;54880;50.986;6.990;2022-12-07T04:15:09;37.10;;;17.83;;
68089;SDS011;54880;50.986;6.990;2022-12-07T04:17:34;36.30;;;17.37;;
68089;SDS011;54880;50.986;6.990;2022-12-07T04:19:59;34.40;;;17.93;;
68089;SDS011;54880;50.986;6.990;2022-12-07T04:22:24;35.20;;;17.53;;
68089;SDS011;54880;50.986;6.990;2022-12-07T04:24:50;37.17;;;17.27;;
68089;SDS011;54880;50.986;6.990;2022-12-07T04:27:15;35.43;;;17.77;;
68089;SDS011;54880;50.986;6.990;2022-12-07T04:29:40;36.37;;;17.83;;
68089;SDS011;54880;50.986;6.990;2022-12-07T04:32:05;35.10;;;17.30;;
68089;SDS011;54880;50.986;6.990;2022-12-07T04:34:31;38.03;;;17.67;;
68089;SDS011;54880;50.986;6.990;2022-12-07T04:36:56;34.53;;;16.80;;
68089;SDS011;54880;50.986;6.990;2022-12-07T04:39:26;38.13;;;17.87;;
68089;SDS011;54880;50.986;6.990;2022-12-07T04:41:51;35.65;;;16.38;;
68089;SDS011;54880;50.986;6.990;2022-12-07T04:44:17;37.67;;;17.83;;
68089;SDS011;54880;50.986;6.990;2022-12-07T04:46:42;35.58;;;17.55;;
68089;SDS011;54880;50.986;6.990;2022-12-07T04:49:08;34.13;;;17.93;;
68089;SDS011;54880;50.986;6.990;2022-12-07T04:51:33;38.70;;;16.77;;
68089;SDS011;54880;50.986;6.990;2022-12-07T04:53:59;38.10;;;16.97;;
68089;SDS011;54880;50.986;6.990;2022-12-07T04:56:24;36.43;;;17.60;;
68089;SDS011;54880;50.986;6.990;2022-12-07T04:58:50;35.10;;;17.10;;
68089;SDS011;54880;50.986;6.990;2022-12-07T05:01:16;35.95;;;17.55;;
68089;SDS011;54880;50.986;6.990;2022-12-07T05:03:41;36.50;;;17.10;;
68089;SDS011;54880;50.986;6.990;2022-12-07T05:06:07;34.65;;;16.77;;
68089;SDS011;54880;50.986;6.990;2022-12-07T05:08:32;36.05;;;16.50;;
68089;SDS011;54880;50.986;6.990;2022-12-07T05:10:58;33.65;;;16.70;;
68089;SDS011;54880;50.986;6.990;2022-12-07T05:13:23;35.70;;;16.47;;
68089;SDS011;54880;50.986;6.990;2022-12-07T05:15:49;31.25;;;16.60;;
68089;SDS011;54880;50.986;6.990;2022-12-07T05:18:14;34.45;;;17.33;;
68089;SDS011;54880;50.986;6.990;2022-12-07T05:20:40;35.20;;;17.07;;
68089;SDS011;54880;50.986;6.990;2022-12-07T05:23:05;40.43;;;17.83;;
68089;SDS011;54880;50.986;6.990;2022-12-07T05:25:31;37.33;;;16.53;;
68089;SDS011;54880;50.986;6.990;2022-12-07T05:27:56;37.77;;;18.17;;
68089;SDS011;54880;50.986;6.990;2022-12-07T05:30:22;34.03;;;17.80;;
68089;SDS011;54880;50.986;6.990;2022-12-07T05:32:47;34.60;;;16.73;;
68089;SDS011;54880;50.986;6.990;2022-12-07T05:35:12;34.57;;;16.83;;
68089;SDS011;54880;50.986;6.990;2022-12-07T05:37:38;40.07;;;18.40;;
68089;SDS011;54880;50.986;6.990;2022-12-07T05:40:03;35.77;;;17.43;;
68089;SDS011;54880;50.986;6.990;2022-12-07T05:42:29;32.20;;;16.77;;
68089;SDS011;54880;50.986;6.990;2022-12-07T05:44:54;33.03;;;16.13;;
68089;SDS011;54880;50.986;6.990;2022-12-07T05:47:19;36.50;;;15.33;;
68089;SDS011;54880;50.986;6.990;2022-12-07T05:49:45;32.73;;;15.37;;
68089;SDS011;54880;50.986;6.990;2022-12-07T05:52:10;32.75;;;15.73;;
68089;SDS011;54880;50.986;6.990;2022-12-07T05:54:36;36.60;;;17.70;;
68089;SDS011;54880;50.986;6.990;2022-12-07T05:57:01;31.07;;;15.63;;
68089;SDS011;54880;50.986;6.990;2022-12-07T05:59:26;31.77;;;14.60;;
68089;SDS011;54880;50.986;6.990;2022-12-07T06:02:02;33.20;;;15.37;;
68089;SDS011;54880;50.986;6.990;2022-12-07T06:04:29;32.53;;;14.95;;
68089;SDS011;54880;50.986;6.990;2022-12-07T06:06:55;29.20;;;14.80;;
68089;SDS011;54880;50.986;6.990;2022-12-07T06:09:20;32.57;;;15.00;;
68089;SDS011;54880;50.986;6.990;2022-12-07T06:11:46;28.95;;;15.68;;
68089;SDS011;54880;50.986;6.990;2022-12-07T06:14:30;29.98;;;15.93;;
68089;SDS011;54880;50.986;6.990;2022-12-07T06:16:56;28.97;;;14.43;;
68089;SDS011;54880;50.986;6.990;2022-12-07T06:19:21;31.97;;;14.17;;
68089;SDS011;54880;50.986;6.990;2022-12-07T06:21:46;25.77;;;13.63;;
68089;SDS011;54880;50.986;6.990;2022-12-07T06:24:12;28.33;;;15.00;;
68089;SDS011;54880;50.986;6.990;2022-12-07T06:26:38;31.15;;;14.82;;
68089;SDS011;54880;50.986;6.990;2022-12-07T06:29:04;31.67;;;15.13;;
68089;SDS011;54880;50.986;6.990;2022-12-07T06:31:29;30.90;;;14.30;;
68089;SDS011;54880;50.986;6.990;2022-12-07T06:34:00;28.73;;;15.43;;
68089;SDS011;54880;50.986;6.990;2022-12-07T06:36:26;28.50;;;14.40;;
68089;SDS011;54880;50.986;6.990;2022-12-07T06:38:51;27.80;;;14.40;;
68089;SDS011;54880;50.986;6.990;2022-12-07T06:41:17;28.90;;;14.73;;
68089;SDS011;54880;50.986;6.990;2022-12-07T06:43:42;31.17;;;13.90;;
68089;SDS011;54880;50.986;6.990;2022-12-07T06:46:07;32.03;;;14.83;;
68089;SDS011;54880;50.986;6.990;2022-12-07T06:48:33;28.08;;;14.10;;
68089;SDS011;54880;50.986;6.990;2022-12-07T06:50:58;30.43;;;14.70;;
68089;SDS011;54880;50.986;6.990;2022-12-07T06:53:23;27.17;;;13.47;;
68089;SDS011;54880;50.986;6.990;2022-12-07T06:55:49;27.63;;;13.57;;
68089;SDS011;54880;50.986;6.990;2022-12-07T06:58:14;31.40;;;13.77;;
68089;SDS011;54880;50.986;6.990;2022-12-07T07:00:39;30.20;;;14.10;;
68089;SDS011;54880;50.986;6.990;2022-12-07T07:03:04;27.87;;;14.60;;
68089;SDS011;54880;50.986;6.990;2022-12-07T07:05:30;30.60;;;14.30;;
68089;SDS011;54880;50.986;6.990;2022-12-07T07:07:55;30.50;;;15.10;;
68089;SDS011;54880;50.986;6.990;2022-12-07T07:10:20;28.27;;;14.47;;
68089;SDS011;54880;50.986;6.990;2022-12-07T07:12:45;29.40;;;15.10;;
68089;SDS011;54880;50.986;6.990;2022-12-07T07:15:10;30.37;;;15.10;;
68089;SDS011;54880;50.986;6.990;2022-12-07T07:17:37;30.48;;;15.57;;
68089;SDS011;54880;50.986;6.990;2022-12-07T07:20:02;29.43;;;15.00;;
68089;SDS011;54880;50.986;6.990;2022-12-07T07:22:28;30.07;;;14.83;;
68089;SDS011;54880;50.986;6.990;2022-12-07T07:24:53;30.37;;;15.03;;
68089;SDS011;54880;50.986;6.990;2022-12-07T07:27:18;28.27;;;14.53;;
68089;SDS011;54880;50.986;6.990;2022-12-07T07:29:43;30.90;;;14.30;;
68089;SDS011;54880;50.986;6.990;2022-12-07T07:32:09;30.70;;;14.87;;
68089;SDS011;54880;50.986;6.990;2022-12-07T07:34:34;28.30;;;14.00;;
68089;SDS011;54880;50.986;6.990;2022-12-07T07:36:59;34.00;;;15.13;;
68089;SDS011;54880;50.986;6.990;2022-12-07T07:39:25;30.57;;;15.50;;
68089;SDS011;54880;50.986;6.990;2022-12-07T07:41:50;32.83;;;15.03;;
68089;SDS011;54880;50.986;6.990;2022-12-07T07:44:23;30.65;;;15.30;;
68089;SDS011;54880;50.986;6.990;2022-12-07T07:46:48;39.43;;;15.63;;
68089;SDS011;54880;50.986;6.990;2022-12-07T07:49:13;33.53;;;16.57;;
68089;SDS011;54880;50.986;6.990;2022-12-07T07:51:39;30.37;;;15.80;;
68089;SDS011;54880;50.986;6.990;2022-12-07T07:54:04;30.97;;;15.27;;
68089;SDS011;54880;50.986;6.990;2022-12-07T07:56:30;33.27;;;16.97;;
68089;SDS011;54880;50.986;6.990;2022-12-07T07:58:55;31.67;;;16.20;;
68089;SDS011;54880;50.986;6.990;2022-12-07T08:01:20;36.23;;;15.23;;
68089;SDS011;54880;50.986;6.990;2022-12-07T08:03:46;32.67;;;15.63;;
68089;SDS011;54880;50.986;6.990;2022-12-07T08:06:11;36.00;;;16.60;;
68089;SDS011;54880;50.986;6.990;2022-12-07T08:08:37;32.07;;;16.67;;
68089;SDS011;54880;50.986;6.990;2022-12-07T08:11:04;28.63;;;15.67;;
68089;SDS011;54880;50.986;6.990;2022-12-07T08:13:30;33.50;;;16.50;;
68089;SDS011;54880;50.986;6.990;2022-12-07T08:15:55;32.30;;;16.07;;
68089;SDS011;54880;50.986;6.990;2022-12-07T08:18:20;31.03;;;16.13;;
68089;SDS011;54880;50.986;6.990;2022-12-07T08:20:45;31.10;;;15.87;;
68089;SDS011;54880;50.986;6.990;2022-12-07T08:23:11;31.00;;;16.63;;
68089;SDS011;54880;50.986;6.990;2022-12-07T08:25:36;31.43;;;16.33;;
68089;SDS011;54880;50.986;6.990;2022-12-07T08:28:02;30.30;;;15.63;;
68089;SDS011;54880;50.986;6.990;2022-12-07T08:30:28;32.07;;;15.23;;
68089;SDS011;54880;50.986;6.990;2022-12-07T08:32:53;33.83;;;17.17;;
68089;SDS011;54880;50.986;6.990;2022-12-07T08:35:18;30.30;;;15.73;;
68089;SDS011;54880;50.986;6.990;2022-12-07T08:37:43;29.60;;;15.27;;
68089;SDS011;54880;50.986;6.990;2022-12-07T08:40:09;33.83;;;16.00;;
68089;SDS011;54880;50.986;6.990;2022-12-07T08:42:40;30.02;;;16.58;;
68089;SDS011;54880;50.986;6.990;2022-12-07T08:45:09;30.30;;;15.43;;
68089;SDS011;54880;50.986;6.990;2022-12-07T08:47:39;30.33;;;14.95;;
68089;SDS011;54880;50.986;6.990;2022-12-07T08:50:05;27.63;;;14.93;;
68089;SDS011;54880;50.986;6.990;2022-12-07T08:52:31;25.92;;;13.82;;
68089;SDS011;54880;50.986;6.990;2022-12-07T08:54:57;26.97;;;13.07;;
68089;SDS011;54880;50.986;6.990;2022-12-07T08:57:23;26.85;;;13.40;;
68089;SDS011;54880;50.986;6.990;2022-12-07T08:59:49;23.53;;;12.43;;
68089;SDS011;54880;50.986;6.990;2022-12-07T09:02:14;25.53;;;13.77;;
68089;SDS011;54880;50.986;6.990;2022-12-07T09:04:39;30.23;;;14.10;;
68089;SDS011;54880;50.986;6.990;2022-12-07T09:07:04;25.30;;;12.80;;
68089;SDS011;54880;50.986;6.990;2022-12-07T09:09:30;27.47;;;12.13;;
68089;SDS011;54880;50.986;6.990;2022-12-07T09:11:55;24.87;;;12.93;;
68089;SDS011;54880;50.986;6.990;2022-12-07T09:14:20;28.67;;;13.37;;
68089;SDS011;54880;50.986;6.990;2022-12-07T09:16:45;22.17;;;12.90;;
68089;SDS011;54880;50.986;6.990;2022-12-07T09:19:11;23.43;;;12.40;;
68089;SDS011;54880;50.986;6.990;2022-12-07T09:21:36;23.03;;;11.60;;
68089;SDS011;54880;50.986;6.990;2022-12-07T09:24:01;25.77;;;11.90;;
68089;SDS011;54880;50.986;6.990;2022-12-07T09:26:26;28.63;;;11.27;;
68089;SDS011;54880;50.986;6.990;2022-12-07T09:28:52;21.37;;;11.80;;
68089;SDS011;54880;50.986;6.990;2022-12-07T09:31:17;22.00;;;11.40;;
68089;SDS011;54880;50.986;6.990;2022-12-07T09:33:42;25.27;;;12.07;;
68089;SDS011;54880;50.986;6.990;2022-12-07T09:36:08;19.45;;;11.45;;
68089;SDS011;54880;50.986;6.990;2022-12-07T09:38:34;23.77;;;11.53;;
68089;SDS011;54880;50.986;6.990;2022-12-07T09:41:04;23.77;;;11.88;;
68089;SDS011;54880;50.986;6.990;2022-12-07T09:43:29;26.45;;;12.18;;
68089;SDS011;54880;50.986;6.990;2022-12-07T09:45:55;22.93;;;11.23;;
68089;SDS011;54880;50.986;6.990;2022-12-07T09:48:21;22.93;;;10.43;;
68089;SDS011;54880;50.986;6.990;2022-12-07T09:50:47;22.67;;;11.50;;
68089;SDS011;54880;50.986;6.990;2022-12-07T09:53:15;21.08;;;10.82;;
68089;SDS011;54880;50.986;6.990;2022-12-07T09:55:41;22.23;;;10.80;;
68089;SDS011;54880;50.986;6.990;2022-12-07T09:58:12;22.75;;;9.82;;
68089;SDS011;54880;50.986;6.990;2022-12-07T10:00:41;22.85;;;10.43;;
68089;SDS011;54880;50.986;6.990;2022-12-07T10:03:08;24.80;;;10.57;;
68089;SDS011;54880;50.986;6.990;2022-12-07T10:05:36;21.67;;;10.93;;
68089;SDS011;54880;50.986;6.990;2022-12-07T10:08:02;21.77;;;10.57;;
68089;SDS011;54880;50.986;6.990;2022-12-07T10:10:32;21.27;;;10.50;;
68089;SDS011;54880;50.986;6.990;2022-12-07T10:12:59;21.80;;;10.00;;
68089;SDS011;54880;50.986;6.990;2022-12-07T10:24:00;21.42;;;9.13;;
68089;SDS011;54880;50.986;6.990;2022-12-07T10:31:41;19.20;;;8.27;;
68089;SDS011;54880;50.986;6.990;2022-12-07T10:34:28;20.73;;;8.50;;
68089;SDS011;54880;50.986;6.990;2022-12-07T10:36:54;20.63;;;9.48;;
68089;SDS011;54880;50.986;6.990;2022-12-07T10:39:31;21.17;;;9.75;;
68089;SDS011;54880;50.986;6.990;2022-12-07T10:42:05;21.13;;;8.88;;
68089;SDS011;54880;50.986;6.990;2022-12-07T10:44:31;15.93;;;6.77;;
68089;SDS011;54880;50.986;6.990;2022-12-07T10:47:19;21.13;;;9.23;;
68089;SDS011;54880;50.986;6.990;2022-12-07T10:55:24;20.27;;;7.88;;
68089;SDS011;54880;50.986;6.990;2022-12-07T11:00:18;22.73;;;8.37;;
68089;SDS011;54880;50.986;6.990;2022-12-07T11:10:05;20.10;;;8.20;;
68089;SDS011;54880;50.986;6.990;2022-12-07T11:18:07;23.10;;;8.75;;
68089;SDS011;54880;50.986;6.990;2022-12-07T11:23:10;18.42;;;8.30;;
68089;SDS011;54880;50.986;6.990;2022-12-07T11:25:44;20.52;;;8.40;;
68089;SDS011;54880;50.986;6.990;2022-12-07T11:31:01;18.48;;;7.68;;
68089;SDS011;54880;50.986;6.990;2022-12-07T11:39:01;17.48;;;7.25;;
68089;SDS011;54880;50.986;6.990;2022-12-07T11:41:28;16.40;;;6.87;;
68089;SDS011;54880;50.986;6.990;2022-12-07T11:49:15;15.40;;;6.67;;
68089;SDS011;54880;50.986;6.990;2022-12-07T11:51:44;15.20;;;5.90;;
68089;SDS011;54880;50.986;6.990;2022-12-07T11:54:21;15.50;;;5.88;;
68089;SDS011;54880;50.986;6.990;2022-12-07T11:56:49;16.70;;;5.80;;
68089;SDS011;54880;50.986;6.990;2022-12-07T12:01:57;13.95;;;5.75;;
68089;SDS011;54880;50.986;6.990;2022-12-07T12:04:35;18.65;;;5.60;;
68089;SDS011;54880;50.986;6.990;2022-12-07T12:07:05;15.70;;;6.72;;
68089;SDS011;54880;50.986;6.990;2022-12-07T12:09:32;17.30;;;6.63;;
68089;SDS011;54880;50.986;6.990;2022-12-07T12:12:37;14.57;;;6.22;;
68089;SDS011;54880;50.986;6.990;2022-12-07T12:20:13;16.73;;;5.70;;
68089;SDS011;54880;50.986;6.990;2022-12-07T12:23:41;14.70;;;5.70;;
68089;SDS011;54880;50.986;6.990;2022-12-07T12:25:56;14.00;;;5.80;;
68089;SDS011;54880;50.986;6.990;2022-12-07T12:28:25;13.88;;;5.50;;
68089;SDS011;54880;50.986;6.990;2022-12-07T12:31:08;19.00;;;6.55;;
68089;SDS011;54880;50.986;6.990;2022-12-07T12:33:34;21.05;;;6.63;;
68089;SDS011;54880;50.986;6.990;2022-12-07T12:46:59;16.88;;;6.45;;
68089;SDS011;54880;50.986;6.990;2022-12-07T12:56:51;20.93;;;8.10;;
68089;SDS011;54880;50.986;6.990;2022-12-07T13:10:04;21.60;;;8.75;;
68089;SDS011;54880;50.986;6.990;2022-12-07T13:12:29;25.57;;;8.63;;
68089;SDS011;54880;50.986;6.990;2022-12-07T13:14:56;27.83;;;9.60;;
68089;SDS011;54880;50.986;6.990;2022-12-07T13:19:56;20.17;;;8.95;;
68089;SDS011;54880;50.986;6.990;2022-12-07T13:25:30;23.50;;;8.88;;
68089;SDS011;54880;50.986;6.990;2022-12-07T13:27:51;18.85;;;8.43;;
68089;SDS011;54880;50.986;6.990;2022-12-07T13:30:20;18.40;;;8.40;;
68089;SDS011;54880;50.986;6.990;2022-12-07T13:32:52;17.73;;;8.60;;
68089;SDS011;54880;50.986;6.990;2022-12-07T13:35:32;20.15;;;9.20;;
68089;SDS011;54880;50.986;6.990;2022-12-07T13:37:58;18.83;;;8.75;;
68089;SDS011;54880;50.986;6.990;2022-12-07T13:40:24;16.30;;;7.22;;
68089;SDS011;54880;50.986;6.990;2022-12-07T13:42:59;19.43;;;9.17;;
68089;SDS011;54880;50.986;6.990;2022-12-07T13:48:14;19.23;;;7.80;;
68089;SDS011;54880;50.986;6.990;2022-12-07T13:50:41;25.45;;;8.70;;
68089;SDS011;54880;50.986;6.990;2022-12-07T13:53:07;20.90;;;9.07;;
68089;SDS011;54880;50.986;6.990;2022-12-07T13:55:36;21.40;;;8.73;;
68089;SDS011;54880;50.986;6.990;2022-12-07T13:58:08;25.15;;;9.38;;
68089;SDS011;54880;50.986;6.990;2022-12-07T14:00:34;19.40;;;8.13;;
68089;SDS011;54880;50.986;6.990;2022-12-07T14:03:00;21.37;;;7.80;;
68089;SDS011;54880;50.986;6.990;2022-12-07T14:07:55;20.50;;;8.40;;
68089;SDS011;54880;50.986;6.990;2022-12-07T14:10:23;20.02;;;7.78;;
68089;SDS011;54880;50.986;6.990;2022-12-07T14:12:49;19.42;;;9.18;;
68089;SDS011;54880;50.986;6.990;2022-12-07T14:15:15;17.27;;;8.17;;
68089;SDS011;54880;50.986;6.990;2022-12-07T14:17:51;20.13;;;8.65;;
68089;SDS011;54880;50.986;6.990;2022-12-07T14:23:01;19.45;;;8.07;;
68089;SDS011;54880;50.986;6.990;2022-12-07T14:25:46;19.70;;;8.73;;
68089;SDS011;54880;50.986;6.990;2022-12-07T14:31:11;18.00;;;7.82;;
68089;SDS011;54880;50.986;6.990;2022-12-07T14:33:37;21.83;;;7.80;;
68089;SDS011;54880;50.986;6.990;2022-12-07T14:36:03;18.48;;;7.53;;
68089;SDS011;54880;50.986;6.990;2022-12-07T14:38:28;23.27;;;9.00;;
68089;SDS011;54880;50.986;6.990;2022-12-07T14:40:53;17.13;;;7.53;;
68089;SDS011;54880;50.986;6.990;2022-12-07T14:43:19;20.70;;;8.57;;
68089;SDS011;54880;50.986;6.990;2022-12-07T14:45:45;21.13;;;8.17;;
68089;SDS011;54880;50.986;6.990;2022-12-07T14:48:11;22.55;;;9.25;;
68089;SDS011;54880;50.986;6.990;2022-12-07T14:50:37;20.95;;;8.00;;
68089;SDS011;54880;50.986;6.990;2022-12-07T14:53:13;18.95;;;8.38;;
68089;SDS011;54880;50.986;6.990;2022-12-07T14:55:39;16.17;;;7.97;;
68089;SDS011;54880;50.986;6.990;2022-12-07T14:58:04;15.97;;;7.80;;
68089;SDS011;54880;50.986;6.990;2022-12-07T15:00:30;23.37;;;8.87;;
68089;SDS011;54880;50.986;6.990;2022-12-07T15:02:55;20.40;;;8.87;;
68089;SDS011;54880;50.986;6.990;2022-12-07T15:05:21;19.42;;;8.60;;
68089;SDS011;54880;50.986;6.990;2022-12-07T15:07:46;20.93;;;9.23;;
68089;SDS011;54880;50.986;6.990;2022-12-07T15:10:17;21.05;;;9.52;;
68089;SDS011;54880;50.986;6.990;2022-12-07T15:12:43;19.70;;;9.93;;
68089;SDS011;54880;50.986;6.990;2022-12-07T15:15:08;16.48;;;8.80;;
68089;SDS011;54880;50.986;6.990;2022-12-07T15:17:33;21.67;;;9.53;;
68089;SDS011;54880;50.986;6.990;2022-12-07T15:19:59;23.30;;;8.27;;
68089;SDS011;54880;50.986;6.990;2022-12-07T15:22:24;23.23;;;9.57;;
68089;SDS011;54880;50.986;6.990;2022-12-07T15:24:49;22.00;;;7.10;;
68089;SDS011;54880;50.986;6.990;2022-12-07T15:27:15;12.90;;;6.03;;
68089;SDS011;54880;50.986;6.990;2022-12-07T15:29:40;15.67;;;5.40;;
68089;SDS011;54880;50.986;6.990;2022-12-07T15:32:05;10.37;;;4.40;;
68089;SDS011;54880;50.986;6.990;2022-12-07T15:34:30;10.37;;;3.87;;
68089;SDS011;54880;50.986;6.990;2022-12-07T15:36:57;11.10;;;3.40;;
68089;SDS011;54880;50.986;6.990;2022-12-07T15:39:22;9.17;;;3.47;;
68089;SDS011;54880;50.986;6.990;2022-12-07T15:41:48;9.63;;;3.17;;
68089;SDS011;54880;50.986;6.990;2022-12-07T15:44:13;11.38;;;3.13;;
68089;SDS011;54880;50.986;6.990;2022-12-07T15:46:57;11.15;;;3.63;;
68089;SDS011;54880;50.986;6.990;2022-12-07T15:49:22;9.20;;;3.80;;
68089;SDS011;54880;50.986;6.990;2022-12-07T15:51:48;7.43;;;2.90;;
68089;SDS011;54880;50.986;6.990;2022-12-07T15:54:15;8.87;;;3.50;;
68089;SDS011;54880;50.986;6.990;2022-12-07T15:56:41;9.07;;;3.42;;
68089;SDS011;54880;50.986;6.990;2022-12-07T15:59:06;8.47;;;3.77;;
68089;SDS011;54880;50.986;6.990;2022-12-07T16:01:31;13.57;;;4.40;;
68089;SDS011;54880;50.986;6.990;2022-12-07T16:03:57;11.70;;;5.20;;
68089;SDS011;54880;50.986;6.990;2022-12-07T16:06:23;11.90;;;5.03;;
68089;SDS011;54880;50.986;6.990;2022-12-07T16:08:48;11.57;;;5.60;;
68089;SDS011;54880;50.986;6.990;2022-12-07T16:11:13;16.07;;;6.40;;
68089;SDS011;54880;50.986;6.990;2022-12-07T16:13:39;11.47;;;5.77;;
68089;SDS011;54880;50.986;6.990;2022-12-07T16:16:09;16.63;;;6.93;;
68089;SDS011;54880;50.986;6.990;2022-12-07T16:18:35;13.52;;;6.47;;
68089;SDS011;54880;50.986;6.990;2022-12-07T16:21:00;14.37;;;7.13;;
68089;SDS011;54880;50.986;6.990;2022-12-07T16:23:26;13.60;;;6.30;;
68089;SDS011;54880;50.986;6.990;2022-12-07T16:25:51;19.83;;;6.95;;
68089;SDS011;54880;50.986;6.990;2022-12-07T16:28:16;18.67;;;7.10;;
68089;SDS011;54880;50.986;6.990;2022-12-07T16:30:41;15.60;;;7.27;;
68089;SDS011;54880;50.986;6.990;2022-12-07T16:33:07;15.80;;;7.07;;
68089;SDS011;54880;50.986;6.990;2022-12-07T16:35:32;19.57;;;8.80;;
68089;SDS011;54880;50.986;6.990;2022-12-07T16:37:57;17.80;;;7.90;;
68089;SDS011;54880;50.986;6.990;2022-12-07T16:40:22;16.70;;;8.33;;
68089;SDS011;54880;50.986;6.990;2022-12-07T16:42:48;16.00;;;8.37;;
68089;SDS011;54880;50.986;6.990;2022-12-07T16:45:13;17.77;;;7.83;;